sensor_id;sensor_type;location;lat;lon;timestamp;temperature;humidity
4054;DHT22;2042;47.956;9.222;2023-05-07T00:01:52;9.90;17.40
4054;DHT22;2042;47.956;9.222;2023-05-07T00:04:18;9.90;17.40
4054;DHT22;2042;47.956;9.222;2023-05-07T00:06:44;9.90;17.30
4054;DHT22;2042;47.956;9.222;2023-05-07T00:09:10;9.90;17.30
4054;DHT22;2042;47.956;9.222;2023-05-07T00:11:36;9.90;17.30
4054;DHT22;2042;47.956;9.222;2023-05-07T00:14:01;9.80;17.30
4054;DHT22;2042;47.956;9.222;2023-05-07T00:16:27;9.80;17.20
4054;DHT22;2042;47.956;9.222;2023-05-07T00:18:53;9.80;17.30
4054;DHT22;2042;47.956;9.222;2023-05-07T00:21:19;9.80;17.50
4054;DHT22;2042;47.956;9.222;2023-05-07T00:23:44;9.80;17.70
4054;DHT22;2042;47.956;9.222;2023-05-07T00:26:10;9.80;17.90
4054;DHT22;2042;47.956;9.222;2023-05-07T00:28:36;9.80;18.10
4054;DHT22;2042;47.956;9.222;2023-05-07T00:31:01;9.80;17.40
4054;DHT22;2042;47.956;9.222;2023-05-07T00:33:27;9.70;17.20
4054;DHT22;2042;47.956;9.222;2023-05-07T00:35:53;9.60;17.10
4054;DHT22;2042;47.956;9.222;2023-05-07T00:38:19;9.60;17.10
4054;DHT22;2042;47.956;9.222;2023-05-07T00:40:45;9.60;17.10
4054;DHT22;2042;47.956;9.222;2023-05-07T00:43:11;9.50;17.10
4054;DHT22;2042;47.956;9.222;2023-05-07T00:45:38;9.50;17.30
4054;DHT22;2042;47.956;9.222;2023-05-07T00:48:04;9.50;17.40
4054;DHT22;2042;47.956;9.222;2023-05-07T00:50:30;9.50;17.50
4054;DHT22;2042;47.956;9.222;2023-05-07T00:52:56;9.50;18.20
4054;DHT22;2042;47.956;9.222;2023-05-07T00:55:23;9.50;19.00
4054;DHT22;2042;47.956;9.222;2023-05-07T00:57:49;9.50;19.50
4054;DHT22;2042;47.956;9.222;2023-05-07T01:00:16;9.50;20.70
4054;DHT22;2042;47.956;9.222;2023-05-07T01:02:42;9.50;20.70
4054;DHT22;2042;47.956;9.222;2023-05-07T01:05:10;9.60;20.90
4054;DHT22;2042;47.956;9.222;2023-05-07T01:07:39;9.60;20.80
4054;DHT22;2042;47.956;9.222;2023-05-07T01:10:06;9.60;20.40
4054;DHT22;2042;47.956;9.222;2023-05-07T01:12:33;9.50;20.20
4054;DHT22;2042;47.956;9.222;2023-05-07T01:14:59;9.50;20.40
4054;DHT22;2042;47.956;9.222;2023-05-07T01:17:26;9.50;20.50
4054;DHT22;2042;47.956;9.222;2023-05-07T01:19:52;9.50;20.40
4054;DHT22;2042;47.956;9.222;2023-05-07T01:22:29;9.50;20.70
4054;DHT22;2042;47.956;9.222;2023-05-07T01:24:56;9.50;21.70
4054;DHT22;2042;47.956;9.222;2023-05-07T01:27:23;9.60;22.40
4054;DHT22;2042;47.956;9.222;2023-05-07T01:29:49;9.60;22.30
4054;DHT22;2042;47.956;9.222;2023-05-07T01:32:18;9.60;21.70
4054;DHT22;2042;47.956;9.222;2023-05-07T01:34:45;9.60;20.90
4054;DHT22;2042;47.956;9.222;2023-05-07T01:37:12;9.50;20.40
4054;DHT22;2042;47.956;9.222;2023-05-07T01:39:39;9.40;20.40
4054;DHT22;2042;47.956;9.222;2023-05-07T01:42:05;9.40;20.40
4054;DHT22;2042;47.956;9.222;2023-05-07T01:44:31;9.30;20.30
4054;DHT22;2042;47.956;9.222;2023-05-07T01:46:57;9.30;20.20
4054;DHT22;2042;47.956;9.222;2023-05-07T01:49:23;9.30;20.40
4054;DHT22;2042;47.956;9.222;2023-05-07T01:51:53;9.20;20.80
4054;DHT22;2042;47.956;9.222;2023-05-07T01:54:19;9.30;21.30
4054;DHT22;2042;47.956;9.222;2023-05-07T01:56:46;9.30;21.20
4054;DHT22;2042;47.956;9.222;2023-05-07T01:59:14;9.20;21.40
4054;DHT22;2042;47.956;9.222;2023-05-07T02:01:39;9.20;20.40
4054;DHT22;2042;47.956;9.222;2023-05-07T02:04:05;9.10;20.00
4054;DHT22;2042;47.956;9.222;2023-05-07T02:06:32;9.10;20.10
4054;DHT22;2042;47.956;9.222;2023-05-07T02:08:58;9.00;20.60
4054;DHT22;2042;47.956;9.222;2023-05-07T02:11:23;9.00;20.90
4054;DHT22;2042;47.956;9.222;2023-05-07T02:13:50;8.90;20.90
4054;DHT22;2042;47.956;9.222;2023-05-07T02:16:16;8.90;20.80
4054;DHT22;2042;47.956;9.222;2023-05-07T02:18:42;8.80;20.40
4054;DHT22;2042;47.956;9.222;2023-05-07T02:21:09;8.80;20.30
4054;DHT22;2042;47.956;9.222;2023-05-07T02:23:35;8.70;20.20
4054;DHT22;2042;47.956;9.222;2023-05-07T02:26:00;8.70;20.20
4054;DHT22;2042;47.956;9.222;2023-05-07T02:28:26;8.60;20.10
4054;DHT22;2042;47.956;9.222;2023-05-07T02:30:52;8.60;20.30
4054;DHT22;2042;47.956;9.222;2023-05-07T02:33:18;8.60;20.10
4054;DHT22;2042;47.956;9.222;2023-05-07T02:35:44;8.50;20.10
4054;DHT22;2042;47.956;9.222;2023-05-07T02:38:10;8.50;20.00
4054;DHT22;2042;47.956;9.222;2023-05-07T02:40:36;8.40;19.50
4054;DHT22;2042;47.956;9.222;2023-05-07T02:43:05;8.30;19.30
4054;DHT22;2042;47.956;9.222;2023-05-07T02:45:32;8.30;19.60
4054;DHT22;2042;47.956;9.222;2023-05-07T02:47:58;8.20;19.80
4054;DHT22;2042;47.956;9.222;2023-05-07T02:50:23;8.20;20.00
4054;DHT22;2042;47.956;9.222;2023-05-07T02:52:49;8.10;20.10
4054;DHT22;2042;47.956;9.222;2023-05-07T02:55:15;8.10;20.40
4054;DHT22;2042;47.956;9.222;2023-05-07T02:57:41;8.10;20.70
4054;DHT22;2042;47.956;9.222;2023-05-07T03:00:14;8.10;20.50
4054;DHT22;2042;47.956;9.222;2023-05-07T03:02:40;8.00;20.50
4054;DHT22;2042;47.956;9.222;2023-05-07T03:05:06;8.00;20.50
4054;DHT22;2042;47.956;9.222;2023-05-07T03:07:33;7.90;20.20
4054;DHT22;2042;47.956;9.222;2023-05-07T03:09:58;7.90;20.70
4054;DHT22;2042;47.956;9.222;2023-05-07T03:12:24;7.90;21.10
4054;DHT22;2042;47.956;9.222;2023-05-07T03:14:50;7.90;21.20
4054;DHT22;2042;47.956;9.222;2023-05-07T03:17:15;7.80;21.00
4054;DHT22;2042;47.956;9.222;2023-05-07T03:19:41;7.80;21.30
4054;DHT22;2042;47.956;9.222;2023-05-07T03:22:10;7.80;21.80
4054;DHT22;2042;47.956;9.222;2023-05-07T03:24:36;7.70;21.60
4054;DHT22;2042;47.956;9.222;2023-05-07T03:27:02;7.70;21.40
4054;DHT22;2042;47.956;9.222;2023-05-07T03:29:28;7.60;21.10
4054;DHT22;2042;47.956;9.222;2023-05-07T03:31:54;7.60;21.20
4054;DHT22;2042;47.956;9.222;2023-05-07T03:34:21;7.60;21.50
4054;DHT22;2042;47.956;9.222;2023-05-07T03:36:51;7.50;21.50
4054;DHT22;2042;47.956;9.222;2023-05-07T03:39:17;7.40;21.00
4054;DHT22;2042;47.956;9.222;2023-05-07T03:41:43;7.40;20.70
4054;DHT22;2042;47.956;9.222;2023-05-07T03:44:15;7.30;20.40
4054;DHT22;2042;47.956;9.222;2023-05-07T03:46:41;7.30;21.10
4054;DHT22;2042;47.956;9.222;2023-05-07T03:49:07;7.30;21.70
4054;DHT22;2042;47.956;9.222;2023-05-07T03:51:39;7.30;21.80
4054;DHT22;2042;47.956;9.222;2023-05-07T03:54:06;7.20;21.40
4054;DHT22;2042;47.956;9.222;2023-05-07T03:56:34;7.20;21.10
4054;DHT22;2042;47.956;9.222;2023-05-07T03:59:00;7.10;20.80
4054;DHT22;2042;47.956;9.222;2023-05-07T04:01:26;7.00;20.70
4054;DHT22;2042;47.956;9.222;2023-05-07T04:03:52;7.00;21.00
4054;DHT22;2042;47.956;9.222;2023-05-07T04:06:18;6.90;21.40
4054;DHT22;2042;47.956;9.222;2023-05-07T04:08:43;6.90;22.00
4054;DHT22;2042;47.956;9.222;2023-05-07T04:11:09;7.00;22.70
4054;DHT22;2042;47.956;9.222;2023-05-07T04:13:34;7.10;22.90
4054;DHT22;2042;47.956;9.222;2023-05-07T04:16:02;7.10;23.00
4054;DHT22;2042;47.956;9.222;2023-05-07T04:18:28;7.10;23.00
4054;DHT22;2042;47.956;9.222;2023-05-07T04:20:54;7.20;23.20
4054;DHT22;2042;47.956;9.222;2023-05-07T04:23:19;7.20;23.70
4054;DHT22;2042;47.956;9.222;2023-05-07T04:25:45;7.30;24.20
4054;DHT22;2042;47.956;9.222;2023-05-07T04:28:11;7.30;24.40
4054;DHT22;2042;47.956;9.222;2023-05-07T04:30:37;7.40;24.60
4054;DHT22;2042;47.956;9.222;2023-05-07T04:33:02;7.50;24.90
4054;DHT22;2042;47.956;9.222;2023-05-07T04:35:28;7.60;25.40
4054;DHT22;2042;47.956;9.222;2023-05-07T04:37:54;7.70;25.70
4054;DHT22;2042;47.956;9.222;2023-05-07T04:40:19;7.80;26.00
4054;DHT22;2042;47.956;9.222;2023-05-07T04:42:45;7.90;26.10
4054;DHT22;2042;47.956;9.222;2023-05-07T04:45:11;8.10;26.40
4054;DHT22;2042;47.956;9.222;2023-05-07T04:47:38;8.20;27.00
4054;DHT22;2042;47.956;9.222;2023-05-07T04:50:04;8.40;27.30
4054;DHT22;2042;47.956;9.222;2023-05-07T04:52:30;8.60;27.60
4054;DHT22;2042;47.956;9.222;2023-05-07T04:54:56;8.80;28.00
4054;DHT22;2042;47.956;9.222;2023-05-07T04:57:22;9.00;28.50
4054;DHT22;2042;47.956;9.222;2023-05-07T04:59:47;9.30;28.60
4054;DHT22;2042;47.956;9.222;2023-05-07T05:02:13;9.50;28.30
4054;DHT22;2042;47.956;9.222;2023-05-07T05:04:38;9.60;27.90
4054;DHT22;2042;47.956;9.222;2023-05-07T05:07:04;9.90;27.70
4054;DHT22;2042;47.956;9.222;2023-05-07T05:09:30;10.10;26.40
4054;DHT22;2042;47.956;9.222;2023-05-07T05:11:56;10.20;25.20
4054;DHT22;2042;47.956;9.222;2023-05-07T05:14:21;10.40;24.30
4054;DHT22;2042;47.956;9.222;2023-05-07T05:16:47;10.50;24.10
4054;DHT22;2042;47.956;9.222;2023-05-07T05:19:12;10.70;22.60
4054;DHT22;2042;47.956;9.222;2023-05-07T05:21:38;10.90;21.80
4054;DHT22;2042;47.956;9.222;2023-05-07T05:24:04;11.10;21.70
4054;DHT22;2042;47.956;9.222;2023-05-07T05:26:30;11.40;21.60
4054;DHT22;2042;47.956;9.222;2023-05-07T05:28:55;11.70;21.60
4054;DHT22;2042;47.956;9.222;2023-05-07T05:31:21;12.00;21.80
4054;DHT22;2042;47.956;9.222;2023-05-07T05:33:46;12.40;20.90
4054;DHT22;2042;47.956;9.222;2023-05-07T05:36:12;12.80;17.30
4054;DHT22;2042;47.956;9.222;2023-05-07T05:38:39;13.10;13.40
4054;DHT22;2042;47.956;9.222;2023-05-07T05:41:05;13.50;8.00
4054;DHT22;2042;47.956;9.222;2023-05-07T05:43:30;13.80;1.50
4054;DHT22;2042;47.956;9.222;2023-05-07T05:45:57;14.20;1.00
4054;DHT22;2042;47.956;9.222;2023-05-07T05:48:23;14.70;1.00
4054;DHT22;2042;47.956;9.222;2023-05-07T05:50:49;15.10;1.00
4054;DHT22;2042;47.956;9.222;2023-05-07T05:53:14;15.60;1.00
4054;DHT22;2042;47.956;9.222;2023-05-07T05:55:41;16.10;1.00
4054;DHT22;2042;47.956;9.222;2023-05-07T05:58:07;16.50;1.00
4054;DHT22;2042;47.956;9.222;2023-05-07T06:00:33;17.00;1.00
4054;DHT22;2042;47.956;9.222;2023-05-07T06:02:58;17.60;1.00
4054;DHT22;2042;47.956;9.222;2023-05-07T06:05:24;18.20;1.00
4054;DHT22;2042;47.956;9.222;2023-05-07T06:07:50;18.70;1.00
4054;DHT22;2042;47.956;9.222;2023-05-07T06:10:16;19.20;1.00
4054;DHT22;2042;47.956;9.222;2023-05-07T06:12:41;19.80;1.00
4054;DHT22;2042;47.956;9.222;2023-05-07T06:15:07;20.50;1.00
4054;DHT22;2042;47.956;9.222;2023-05-07T06:17:33;21.00;1.00
4054;DHT22;2042;47.956;9.222;2023-05-07T06:19:59;21.40;1.00
4054;DHT22;2042;47.956;9.222;2023-05-07T06:22:24;21.60;1.00
4054;DHT22;2042;47.956;9.222;2023-05-07T06:24:50;21.90;1.00
4054;DHT22;2042;47.956;9.222;2023-05-07T06:27:16;22.00;1.00
4054;DHT22;2042;47.956;9.222;2023-05-07T06:29:41;22.10;1.00
4054;DHT22;2042;47.956;9.222;2023-05-07T06:32:08;22.20;1.00
4054;DHT22;2042;47.956;9.222;2023-05-07T06:34:35;22.50;1.00
4054;DHT22;2042;47.956;9.222;2023-05-07T06:37:00;22.70;1.00
4054;DHT22;2042;47.956;9.222;2023-05-07T06:39:26;22.80;1.00
4054;DHT22;2042;47.956;9.222;2023-05-07T06:41:52;23.10;1.00
4054;DHT22;2042;47.956;9.222;2023-05-07T06:44:17;23.90;1.00
4054;DHT22;2042;47.956;9.222;2023-05-07T06:46:43;24.50;1.00
4054;DHT22;2042;47.956;9.222;2023-05-07T06:49:09;25.10;1.00
4054;DHT22;2042;47.956;9.222;2023-05-07T06:51:34;25.50;1.00
4054;DHT22;2042;47.956;9.222;2023-05-07T06:54:00;25.50;1.00
4054;DHT22;2042;47.956;9.222;2023-05-07T06:56:25;25.20;1.00
4054;DHT22;2042;47.956;9.222;2023-05-07T06:58:51;24.50;1.00
4054;DHT22;2042;47.956;9.222;2023-05-07T07:01:17;23.80;1.00
4054;DHT22;2042;47.956;9.222;2023-05-07T07:03:42;23.30;1.00
4054;DHT22;2042;47.956;9.222;2023-05-07T07:06:08;22.80;1.00
4054;DHT22;2042;47.956;9.222;2023-05-07T07:08:33;22.70;1.00
4054;DHT22;2042;47.956;9.222;2023-05-07T07:11:00;23.10;1.00
4054;DHT22;2042;47.956;9.222;2023-05-07T07:13:25;23.90;1.00
4054;DHT22;2042;47.956;9.222;2023-05-07T07:15:52;24.90;1.00
4054;DHT22;2042;47.956;9.222;2023-05-07T07:18:18;25.80;1.00
4054;DHT22;2042;47.956;9.222;2023-05-07T07:20:44;26.30;1.00
4054;DHT22;2042;47.956;9.222;2023-05-07T07:23:10;26.70;1.00
4054;DHT22;2042;47.956;9.222;2023-05-07T07:25:35;27.40;1.00
4054;DHT22;2042;47.956;9.222;2023-05-07T07:28:01;27.70;1.00
4054;DHT22;2042;47.956;9.222;2023-05-07T07:30:27;28.00;1.00
4054;DHT22;2042;47.956;9.222;2023-05-07T07:32:53;28.60;1.00
4054;DHT22;2042;47.956;9.222;2023-05-07T07:35:19;29.20;1.00
4054;DHT22;2042;47.956;9.222;2023-05-07T07:37:44;29.90;1.00
4054;DHT22;2042;47.956;9.222;2023-05-07T07:40:11;30.50;1.00
4054;DHT22;2042;47.956;9.222;2023-05-07T07:42:37;30.90;1.00
4054;DHT22;2042;47.956;9.222;2023-05-07T07:45:03;30.90;1.00
4054;DHT22;2042;47.956;9.222;2023-05-07T07:47:28;30.30;1.00
4054;DHT22;2042;47.956;9.222;2023-05-07T07:49:54;29.50;1.00
4054;DHT22;2042;47.956;9.222;2023-05-07T07:52:20;28.70;1.00
4054;DHT22;2042;47.956;9.222;2023-05-07T07:54:46;28.50;1.00
4054;DHT22;2042;47.956;9.222;2023-05-07T07:57:12;28.80;1.00
4054;DHT22;2042;47.956;9.222;2023-05-07T07:59:37;28.80;1.00
4054;DHT22;2042;47.956;9.222;2023-05-07T08:02:03;28.80;1.00
4054;DHT22;2042;47.956;9.222;2023-05-07T08:04:31;28.60;1.00
4054;DHT22;2042;47.956;9.222;2023-05-07T08:06:58;28.60;1.00
4054;DHT22;2042;47.956;9.222;2023-05-07T08:09:24;29.20;1.00
4054;DHT22;2042;47.956;9.222;2023-05-07T08:11:49;29.90;1.00
4054;DHT22;2042;47.956;9.222;2023-05-07T08:14:15;30.40;1.00
4054;DHT22;2042;47.956;9.222;2023-05-07T08:16:41;31.00;1.00
4054;DHT22;2042;47.956;9.222;2023-05-07T08:19:06;31.40;1.00
4054;DHT22;2042;47.956;9.222;2023-05-07T08:21:32;32.10;1.00
4054;DHT22;2042;47.956;9.222;2023-05-07T08:23:58;32.80;1.00
4054;DHT22;2042;47.956;9.222;2023-05-07T08:26:23;33.40;1.00
4054;DHT22;2042;47.956;9.222;2023-05-07T08:28:49;33.80;1.00
4054;DHT22;2042;47.956;9.222;2023-05-07T08:31:15;34.20;1.00
4054;DHT22;2042;47.956;9.222;2023-05-07T08:33:40;34.70;1.00
4054;DHT22;2042;47.956;9.222;2023-05-07T08:36:06;35.30;1.00
4054;DHT22;2042;47.956;9.222;2023-05-07T08:38:32;35.80;1.00
4054;DHT22;2042;47.956;9.222;2023-05-07T08:40:57;36.10;1.00
4054;DHT22;2042;47.956;9.222;2023-05-07T08:43:26;36.20;1.00
4054;DHT22;2042;47.956;9.222;2023-05-07T08:45:53;35.90;1.00
4054;DHT22;2042;47.956;9.222;2023-05-07T08:48:22;35.50;1.00
4054;DHT22;2042;47.956;9.222;2023-05-07T08:50:50;35.60;1.00
4054;DHT22;2042;47.956;9.222;2023-05-07T08:53:16;35.60;1.00
4054;DHT22;2042;47.956;9.222;2023-05-07T08:55:42;35.70;1.00
4054;DHT22;2042;47.956;9.222;2023-05-07T08:58:08;35.60;1.00
4054;DHT22;2042;47.956;9.222;2023-05-07T09:00:33;35.30;1.00
4054;DHT22;2042;47.956;9.222;2023-05-07T09:03:01;35.00;1.00
4054;DHT22;2042;47.956;9.222;2023-05-07T09:05:27;34.20;1.00
4054;DHT22;2042;47.956;9.222;2023-05-07T09:07:52;34.20;1.00
4054;DHT22;2042;47.956;9.222;2023-05-07T09:10:18;34.30;1.00
4054;DHT22;2042;47.956;9.222;2023-05-07T09:12:46;34.60;1.00
4054;DHT22;2042;47.956;9.222;2023-05-07T09:15:12;33.90;1.00
4054;DHT22;2042;47.956;9.222;2023-05-07T09:17:37;32.90;1.00
4054;DHT22;2042;47.956;9.222;2023-05-07T09:20:05;31.80;1.00
4054;DHT22;2042;47.956;9.222;2023-05-07T09:22:36;31.10;1.00
4054;DHT22;2042;47.956;9.222;2023-05-07T09:25:02;31.40;1.00
4054;DHT22;2042;47.956;9.222;2023-05-07T09:27:28;31.70;1.00
4054;DHT22;2042;47.956;9.222;2023-05-07T09:29:54;31.60;1.00
4054;DHT22;2042;47.956;9.222;2023-05-07T09:32:19;31.30;1.00
4054;DHT22;2042;47.956;9.222;2023-05-07T09:34:45;31.60;1.00
4054;DHT22;2042;47.956;9.222;2023-05-07T09:37:13;31.90;1.00
4054;DHT22;2042;47.956;9.222;2023-05-07T09:39:46;31.70;1.00
4054;DHT22;2042;47.956;9.222;2023-05-07T09:42:12;31.40;1.00
4054;DHT22;2042;47.956;9.222;2023-05-07T09:44:40;31.40;1.00
4054;DHT22;2042;47.956;9.222;2023-05-07T09:47:26;31.70;1.00
4054;DHT22;2042;47.956;9.222;2023-05-07T09:49:59;31.90;1.00
4054;DHT22;2042;47.956;9.222;2023-05-07T09:52:30;32.30;1.00
4054;DHT22;2042;47.956;9.222;2023-05-07T09:54:59;33.00;1.00
4054;DHT22;2042;47.956;9.222;2023-05-07T09:57:26;32.80;1.00
4054;DHT22;2042;47.956;9.222;2023-05-07T09:59:53;32.40;1.00
4054;DHT22;2042;47.956;9.222;2023-05-07T10:02:20;32.40;1.00
4054;DHT22;2042;47.956;9.222;2023-05-07T10:04:47;32.50;1.00
4054;DHT22;2042;47.956;9.222;2023-05-07T10:07:14;33.00;1.00
4054;DHT22;2042;47.956;9.222;2023-05-07T10:09:41;33.30;1.00
4054;DHT22;2042;47.956;9.222;2023-05-07T10:12:09;33.30;1.00
4054;DHT22;2042;47.956;9.222;2023-05-07T10:14:35;32.60;1.00
4054;DHT22;2042;47.956;9.222;2023-05-07T10:17:02;30.60;1.00
4054;DHT22;2042;47.956;9.222;2023-05-07T10:19:29;29.70;1.00
4054;DHT22;2042;47.956;9.222;2023-05-07T10:21:58;29.60;1.00
4054;DHT22;2042;47.956;9.222;2023-05-07T10:24:27;29.30;1.00
4054;DHT22;2042;47.956;9.222;2023-05-07T10:26:55;28.90;1.00
4054;DHT22;2042;47.956;9.222;2023-05-07T10:34:54;29.70;1.00
4054;DHT22;2042;47.956;9.222;2023-05-07T10:37:22;29.80;1.00
4054;DHT22;2042;47.956;9.222;2023-05-07T10:39:48;30.10;1.00
4054;DHT22;2042;47.956;9.222;2023-05-07T10:42:14;30.00;1.00
4054;DHT22;2042;47.956;9.222;2023-05-07T10:44:40;30.10;1.00
4054;DHT22;2042;47.956;9.222;2023-05-07T10:47:15;30.20;1.00
4054;DHT22;2042;47.956;9.222;2023-05-07T10:54:44;31.90;1.00
4054;DHT22;2042;47.956;9.222;2023-05-07T10:59:57;32.00;1.00
4054;DHT22;2042;47.956;9.222;2023-05-07T11:02:23;32.30;1.00
4054;DHT22;2042;47.956;9.222;2023-05-07T11:05:24;32.00;1.00
4054;DHT22;2042;47.956;9.222;2023-05-07T11:07:58;31.50;1.00
4054;DHT22;2042;47.956;9.222;2023-05-07T11:10:47;31.40;1.00
4054;DHT22;2042;47.956;9.222;2023-05-07T11:13:14;31.60;1.00
4054;DHT22;2042;47.956;9.222;2023-05-07T11:15:47;30.90;1.00
4054;DHT22;2042;47.956;9.222;2023-05-07T11:18:15;30.30;1.00
4054;DHT22;2042;47.956;9.222;2023-05-07T11:26:06;30.30;1.00
4054;DHT22;2042;47.956;9.222;2023-05-07T11:28:38;30.70;1.00
4054;DHT22;2042;47.956;9.222;2023-05-07T11:31:04;30.50;1.00
4054;DHT22;2042;47.956;9.222;2023-05-07T11:33:33;30.10;1.00
4054;DHT22;2042;47.956;9.222;2023-05-07T11:36:00;30.10;1.00
4054;DHT22;2042;47.956;9.222;2023-05-07T11:38:28;30.90;1.00
4054;DHT22;2042;47.956;9.222;2023-05-07T11:40:56;31.90;1.00
4054;DHT22;2042;47.956;9.222;2023-05-07T11:43:22;32.40;1.00
4054;DHT22;2042;47.956;9.222;2023-05-07T11:45:48;32.50;1.00
4054;DHT22;2042;47.956;9.222;2023-05-07T11:48:15;31.90;1.00
4054;DHT22;2042;47.956;9.222;2023-05-07T11:51:03;31.20;1.00
4054;DHT22;2042;47.956;9.222;2023-05-07T11:53:37;31.00;1.00
4054;DHT22;2042;47.956;9.222;2023-05-07T11:56:13;31.00;1.00
4054;DHT22;2042;47.956;9.222;2023-05-07T11:58:40;30.50;1.00
4054;DHT22;2042;47.956;9.222;2023-05-07T12:01:08;30.80;1.00
4054;DHT22;2042;47.956;9.222;2023-05-07T12:03:35;30.90;1.00
4054;DHT22;2042;47.956;9.222;2023-05-07T12:06:02;31.40;1.00
4054;DHT22;2042;47.956;9.222;2023-05-07T12:08:28;31.80;1.00
4054;DHT22;2042;47.956;9.222;2023-05-07T12:10:54;31.80;1.00
4054;DHT22;2042;47.956;9.222;2023-05-07T12:13:21;31.70;1.00
4054;DHT22;2042;47.956;9.222;2023-05-07T12:15:53;32.20;1.00
4054;DHT22;2042;47.956;9.222;2023-05-07T12:18:20;32.10;1.00
4054;DHT22;2042;47.956;9.222;2023-05-07T12:20:46;32.30;1.00
4054;DHT22;2042;47.956;9.222;2023-05-07T12:23:12;32.50;1.00
4054;DHT22;2042;47.956;9.222;2023-05-07T12:25:39;32.20;1.00
4054;DHT22;2042;47.956;9.222;2023-05-07T12:28:07;32.30;1.00
4054;DHT22;2042;47.956;9.222;2023-05-07T12:30:39;31.70;1.00
4054;DHT22;2042;47.956;9.222;2023-05-07T12:33:05;31.40;1.00
4054;DHT22;2042;47.956;9.222;2023-05-07T12:35:32;31.50;1.00
4054;DHT22;2042;47.956;9.222;2023-05-07T12:38:01;31.40;1.00
4054;DHT22;2042;47.956;9.222;2023-05-07T12:40:55;32.30;1.00
4054;DHT22;2042;47.956;9.222;2023-05-07T12:43:24;33.10;1.00
4054;DHT22;2042;47.956;9.222;2023-05-07T12:45:51;33.70;1.00
4054;DHT22;2042;47.956;9.222;2023-05-07T12:48:19;33.90;1.00
4054;DHT22;2042;47.956;9.222;2023-05-07T12:50:48;33.90;1.00
4054;DHT22;2042;47.956;9.222;2023-05-07T12:53:14;34.00;1.00
4054;DHT22;2042;47.956;9.222;2023-05-07T12:58:07;34.80;1.00
4054;DHT22;2042;47.956;9.222;2023-05-07T13:00:37;35.10;1.00
4054;DHT22;2042;47.956;9.222;2023-05-07T13:03:04;34.90;1.00
4054;DHT22;2042;47.956;9.222;2023-05-07T13:05:31;35.40;1.00
4054;DHT22;2042;47.956;9.222;2023-05-07T13:07:57;36.60;1.00
4054;DHT22;2042;47.956;9.222;2023-05-07T13:10:23;37.30;1.00
4054;DHT22;2042;47.956;9.222;2023-05-07T13:12:50;36.90;1.00
4054;DHT22;2042;47.956;9.222;2023-05-07T13:15:16;35.90;1.00
4054;DHT22;2042;47.956;9.222;2023-05-07T13:17:42;34.60;1.00
4054;DHT22;2042;47.956;9.222;2023-05-07T13:20:09;33.40;1.00
4054;DHT22;2042;47.956;9.222;2023-05-07T13:22:35;32.40;1.00
4054;DHT22;2042;47.956;9.222;2023-05-07T13:25:01;31.80;1.00
4054;DHT22;2042;47.956;9.222;2023-05-07T13:27:27;31.10;1.00
4054;DHT22;2042;47.956;9.222;2023-05-07T13:29:52;30.30;1.00
4054;DHT22;2042;47.956;9.222;2023-05-07T13:32:18;29.60;1.00
4054;DHT22;2042;47.956;9.222;2023-05-07T13:34:44;29.00;1.00
4054;DHT22;2042;47.956;9.222;2023-05-07T13:37:09;28.20;1.00
4054;DHT22;2042;47.956;9.222;2023-05-07T13:39:36;26.70;1.00
4054;DHT22;2042;47.956;9.222;2023-05-07T13:42:01;24.90;1.00
4054;DHT22;2042;47.956;9.222;2023-05-07T13:44:27;23.30;1.00
4054;DHT22;2042;47.956;9.222;2023-05-07T13:46:53;22.10;1.00
4054;DHT22;2042;47.956;9.222;2023-05-07T13:49:19;21.50;1.00
4054;DHT22;2042;47.956;9.222;2023-05-07T13:51:45;21.30;1.00
4054;DHT22;2042;47.956;9.222;2023-05-07T13:54:10;21.20;1.00
4054;DHT22;2042;47.956;9.222;2023-05-07T13:56:37;21.30;1.00
4054;DHT22;2042;47.956;9.222;2023-05-07T13:59:02;21.40;1.00
4054;DHT22;2042;47.956;9.222;2023-05-07T14:01:28;21.60;1.00
4054;DHT22;2042;47.956;9.222;2023-05-07T14:03:55;21.70;1.00
4054;DHT22;2042;47.956;9.222;2023-05-07T14:06:20;21.80;1.00
4054;DHT22;2042;47.956;9.222;2023-05-07T14:08:47;21.80;1.00
4054;DHT22;2042;47.956;9.222;2023-05-07T14:11:12;22.10;1.00
4054;DHT22;2042;47.956;9.222;2023-05-07T14:13:38;22.20;1.00
4054;DHT22;2042;47.956;9.222;2023-05-07T14:16:04;22.10;1.00
4054;DHT22;2042;47.956;9.222;2023-05-07T14:18:30;21.90;1.00
4054;DHT22;2042;47.956;9.222;2023-05-07T14:20:56;21.60;1.00
4054;DHT22;2042;47.956;9.222;2023-05-07T14:23:21;21.40;1.00
4054;DHT22;2042;47.956;9.222;2023-05-07T14:25:54;21.20;1.00
4054;DHT22;2042;47.956;9.222;2023-05-07T14:28:21;20.90;1.00
4054;DHT22;2042;47.956;9.222;2023-05-07T14:30:48;20.90;1.00
4054;DHT22;2042;47.956;9.222;2023-05-07T14:33:13;21.10;1.00
4054;DHT22;2042;47.956;9.222;2023-05-07T14:35:39;21.50;1.00
4054;DHT22;2042;47.956;9.222;2023-05-07T14:38:05;22.20;1.00
4054;DHT22;2042;47.956;9.222;2023-05-07T14:40:30;23.30;1.00
4054;DHT22;2042;47.956;9.222;2023-05-07T14:42:56;24.60;1.00
4054;DHT22;2042;47.956;9.222;2023-05-07T14:45:23;25.90;1.00
4054;DHT22;2042;47.956;9.222;2023-05-07T14:47:48;27.20;1.00
4054;DHT22;2042;47.956;9.222;2023-05-07T14:50:14;28.00;1.00
4054;DHT22;2042;47.956;9.222;2023-05-07T14:52:40;28.20;1.00
4054;DHT22;2042;47.956;9.222;2023-05-07T14:55:06;27.70;1.00
4054;DHT22;2042;47.956;9.222;2023-05-07T14:57:31;27.00;1.00
4054;DHT22;2042;47.956;9.222;2023-05-07T15:00:03;26.50;1.00
4054;DHT22;2042;47.956;9.222;2023-05-07T15:02:30;25.90;1.00
4054;DHT22;2042;47.956;9.222;2023-05-07T15:04:55;25.30;1.00
4054;DHT22;2042;47.956;9.222;2023-05-07T15:07:21;24.80;1.00
4054;DHT22;2042;47.956;9.222;2023-05-07T15:09:47;24.40;1.00
4054;DHT22;2042;47.956;9.222;2023-05-07T15:12:13;24.20;1.00
4054;DHT22;2042;47.956;9.222;2023-05-07T15:14:39;24.20;1.00
4054;DHT22;2042;47.956;9.222;2023-05-07T15:17:05;24.20;1.00
4054;DHT22;2042;47.956;9.222;2023-05-07T15:19:31;24.20;1.00
4054;DHT22;2042;47.956;9.222;2023-05-07T15:22:00;24.10;1.00
4054;DHT22;2042;47.956;9.222;2023-05-07T15:24:29;24.00;1.00
4054;DHT22;2042;47.956;9.222;2023-05-07T15:26:54;23.60;1.00
4054;DHT22;2042;47.956;9.222;2023-05-07T15:29:20;23.10;1.00
4054;DHT22;2042;47.956;9.222;2023-05-07T15:31:47;22.90;1.00
4054;DHT22;2042;47.956;9.222;2023-05-07T15:34:13;23.20;1.00
4054;DHT22;2042;47.956;9.222;2023-05-07T15:36:40;23.60;1.00
4054;DHT22;2042;47.956;9.222;2023-05-07T15:39:06;23.90;1.00
4054;DHT22;2042;47.956;9.222;2023-05-07T15:41:31;24.00;1.00
4054;DHT22;2042;47.956;9.222;2023-05-07T15:43:57;24.20;1.00
4054;DHT22;2042;47.956;9.222;2023-05-07T15:46:24;23.80;1.00
4054;DHT22;2042;47.956;9.222;2023-05-07T15:48:50;23.20;1.00
4054;DHT22;2042;47.956;9.222;2023-05-07T15:51:16;22.50;1.00
4054;DHT22;2042;47.956;9.222;2023-05-07T15:53:42;22.00;1.00
4054;DHT22;2042;47.956;9.222;2023-05-07T15:56:08;21.60;1.00
4054;DHT22;2042;47.956;9.222;2023-05-07T15:58:34;21.20;1.00
4054;DHT22;2042;47.956;9.222;2023-05-07T16:01:01;21.00;1.00
4054;DHT22;2042;47.956;9.222;2023-05-07T16:03:27;20.80;1.00
4054;DHT22;2042;47.956;9.222;2023-05-07T16:05:56;20.70;1.00
4054;DHT22;2042;47.956;9.222;2023-05-07T16:08:25;20.80;1.00
4054;DHT22;2042;47.956;9.222;2023-05-07T16:10:51;20.90;1.00
4054;DHT22;2042;47.956;9.222;2023-05-07T16:13:17;21.00;1.00
4054;DHT22;2042;47.956;9.222;2023-05-07T16:15:46;20.90;1.00
4054;DHT22;2042;47.956;9.222;2023-05-07T16:18:12;20.80;1.00
4054;DHT22;2042;47.956;9.222;2023-05-07T16:20:41;20.50;1.00
4054;DHT22;2042;47.956;9.222;2023-05-07T16:23:10;20.30;1.00
4054;DHT22;2042;47.956;9.222;2023-05-07T16:25:37;20.10;1.00
4054;DHT22;2042;47.956;9.222;2023-05-07T16:28:03;20.00;1.00
4054;DHT22;2042;47.956;9.222;2023-05-07T16:30:29;20.00;1.00
4054;DHT22;2042;47.956;9.222;2023-05-07T16:32:54;19.90;1.00
4054;DHT22;2042;47.956;9.222;2023-05-07T16:35:20;19.90;1.00